createdAt,value
2022-07-25T00:01:46.034Z,2.20
2022-07-25T00:04:13.205Z,2.00
2022-07-25T00:06:42.769Z,2.15
2022-07-25T00:09:10.248Z,2.28
2022-07-25T00:11:37.291Z,2.30
2022-07-25T00:14:05.351Z,2.03
2022-07-25T00:16:32.699Z,2.20
2022-07-25T00:18:59.992Z,2.30
2022-07-25T00:21:27.249Z,2.03
2022-07-25T00:23:54.096Z,2.37
2022-07-25T00:26:20.894Z,2.00
2022-07-25T00:28:47.802Z,2.03
2022-07-25T00:31:14.673Z,2.40
2022-07-25T00:33:41.551Z,2.20
2022-07-25T00:36:09.116Z,2.10
2022-07-25T00:38:36.040Z,2.25
2022-07-25T00:41:04.682Z,2.00
2022-07-25T00:43:31.992Z,2.20
2022-07-25T00:45:59.578Z,2.47
2022-07-25T00:48:28.604Z,2.00
2022-07-25T00:50:57.090Z,2.28
2022-07-25T00:53:24.597Z,2.22
2022-07-25T00:55:52.640Z,2.25
2022-07-25T00:58:19.615Z,2.00
2022-07-25T01:00:47.687Z,2.10
2022-07-25T01:03:15.315Z,2.20
2022-07-25T01:05:42.577Z,2.30
2022-07-25T01:08:09.873Z,2.28
2022-07-25T01:10:36.950Z,2.22
2022-07-25T01:13:03.915Z,2.40
2022-07-25T01:15:30.927Z,2.40
2022-07-25T01:17:57.903Z,2.30
2022-07-25T01:20:27.350Z,2.10
2022-07-25T01:22:54.679Z,2.25
2022-07-25T01:25:21.944Z,2.23
2022-07-25T01:27:55.189Z,2.47
2022-07-25T01:30:24.309Z,2.92
2022-07-25T01:32:51.404Z,2.05
2022-07-25T01:35:18.422Z,2.20
2022-07-25T01:37:45.465Z,2.17
2022-07-25T01:40:13.346Z,2.17
2022-07-25T01:42:40.223Z,2.10
2022-07-25T01:45:07.721Z,2.28
2022-07-25T01:47:34.703Z,2.20
2022-07-25T01:50:01.602Z,2.30
2022-07-25T01:52:28.810Z,2.10
2022-07-25T01:54:55.740Z,2.20
2022-07-25T01:57:24.370Z,2.30
2022-07-25T01:59:58.212Z,2.28
2022-07-25T02:02:25.387Z,2.43
2022-07-25T02:04:52.298Z,2.20
2022-07-25T02:07:19.345Z,2.20
2022-07-25T02:09:46.273Z,2.20
2022-07-25T02:12:13.157Z,2.22
2022-07-25T02:14:40.075Z,2.40
2022-07-25T02:17:07.023Z,2.15
2022-07-25T02:19:34.067Z,2.30
2022-07-25T02:22:01.123Z,2.30
2022-07-25T02:24:28.130Z,2.10
2022-07-25T02:26:54.939Z,2.20
2022-07-25T02:29:22.302Z,2.13
2022-07-25T02:31:49.380Z,2.20
2022-07-25T02:34:16.368Z,2.00
2022-07-25T02:36:43.527Z,2.20
2022-07-25T02:39:10.544Z,2.30
2022-07-25T02:41:37.464Z,2.30
2022-07-25T02:44:05.615Z,2.40
2022-07-25T02:46:33.756Z,2.22
2022-07-25T02:49:01.044Z,2.20
2022-07-25T02:51:28.087Z,2.33
2022-07-25T02:53:57.775Z,2.30
2022-07-25T02:56:25.641Z,2.30
2022-07-25T02:58:52.588Z,2.13
2022-07-25T03:01:19.439Z,2.33
2022-07-25T03:03:46.439Z,2.20
2022-07-25T03:06:13.442Z,2.33
2022-07-25T03:08:40.251Z,2.17
2022-07-25T03:11:07.124Z,2.20
2022-07-25T03:13:34.064Z,2.65
2022-07-25T03:16:00.974Z,2.40
2022-07-25T03:18:27.845Z,2.10
2022-07-25T03:20:54.770Z,2.00
2022-07-25T03:23:21.928Z,2.20
2022-07-25T03:25:48.793Z,2.00
2022-07-25T03:28:15.715Z,2.20
2022-07-25T03:30:42.579Z,2.00
2022-07-25T03:33:09.427Z,1.95
2022-07-25T03:35:38.242Z,2.00
2022-07-25T03:38:05.047Z,2.00
2022-07-25T03:40:31.886Z,2.20
2022-07-25T03:42:58.818Z,2.20
2022-07-25T03:45:25.844Z,2.15
2022-07-25T03:47:52.675Z,2.00
2022-07-25T03:50:19.582Z,1.90
2022-07-25T03:52:46.464Z,2.00
2022-07-25T03:55:13.367Z,1.80
2022-07-25T03:57:40.305Z,2.00
2022-07-25T04:00:09.100Z,1.83
2022-07-25T04:02:36.761Z,1.95
2022-07-25T04:05:04.909Z,2.10
2022-07-25T04:07:31.963Z,2.00
2022-07-25T04:09:58.826Z,2.00
2022-07-25T04:12:25.824Z,2.10
2022-07-25T04:14:52.646Z,1.90
2022-07-25T04:17:19.508Z,2.30
2022-07-25T04:19:47.934Z,2.10
2022-07-25T04:22:15.094Z,2.15
2022-07-25T04:24:41.942Z,2.05
2022-07-25T04:27:08.922Z,2.00
2022-07-25T04:29:35.841Z,1.93
2022-07-25T04:32:02.740Z,2.28
2022-07-25T04:34:29.781Z,2.40
2022-07-25T04:36:56.613Z,2.33
2022-07-25T04:39:23.501Z,2.10
2022-07-25T04:41:50.451Z,2.00
2022-07-25T04:44:17.311Z,2.30
2022-07-25T04:46:43.961Z,2.28
2022-07-25T04:49:10.907Z,2.47
2022-07-25T04:51:37.714Z,2.70
2022-07-25T04:54:05.150Z,2.50
2022-07-25T04:56:32.328Z,2.67
2022-07-25T04:59:04.685Z,2.50
2022-07-25T05:01:33.556Z,2.35
2022-07-25T05:04:00.435Z,2.50
2022-07-25T05:06:27.295Z,2.40
2022-07-25T05:08:54.418Z,2.30
2022-07-25T05:11:21.293Z,2.25
2022-07-25T05:13:48.175Z,2.30
2022-07-25T05:16:15.139Z,2.40
2022-07-25T05:18:42.022Z,2.63
2022-07-25T05:21:11.437Z,2.70
2022-07-25T05:23:38.287Z,2.58
2022-07-25T05:26:05.307Z,2.20
2022-07-25T05:28:32.154Z,2.60
2022-07-25T05:30:59.138Z,2.40
2022-07-25T05:33:26.024Z,2.05
2022-07-25T05:35:52.982Z,2.53
2022-07-25T05:38:20.056Z,2.33
2022-07-25T05:40:47.004Z,2.40
2022-07-25T05:43:13.755Z,2.30
2022-07-25T05:45:40.623Z,2.25
2022-07-25T05:48:07.394Z,2.10
2022-07-25T05:50:36.545Z,2.20
2022-07-25T05:53:03.558Z,2.28
2022-07-25T05:55:30.393Z,1.90
2022-07-25T05:57:57.234Z,2.13
2022-07-25T06:00:24.379Z,2.10
2022-07-25T06:02:51.406Z,2.13
2022-07-25T06:05:18.414Z,2.10
2022-07-25T06:07:46.260Z,2.27
2022-07-25T06:10:13.041Z,2.22
2022-07-25T06:12:39.859Z,1.90
2022-07-25T06:15:07.811Z,2.10
2022-07-25T06:17:39.590Z,2.38
2022-07-25T06:20:07.502Z,2.03
2022-07-25T06:22:34.385Z,2.08
2022-07-25T06:25:04.537Z,2.30
2022-07-25T06:27:31.377Z,2.17
2022-07-25T06:29:58.444Z,1.90
2022-07-25T06:32:25.279Z,2.30
2022-07-25T06:34:52.218Z,2.20
2022-07-25T06:37:19.318Z,2.25
2022-07-25T06:39:46.382Z,2.50
2022-07-25T06:42:13.358Z,2.35
2022-07-25T06:44:41.022Z,2.20
2022-07-25T06:47:08.129Z,2.22
2022-07-25T06:49:34.966Z,2.28
2022-07-25T06:52:02.142Z,2.22
2022-07-25T06:54:28.904Z,2.00
2022-07-25T06:56:55.733Z,2.20
2022-07-25T06:59:24.010Z,2.40
2022-07-25T07:01:51.766Z,2.45
2022-07-25T07:04:19.047Z,2.40
2022-07-25T07:06:46.088Z,2.13
2022-07-25T07:09:12.996Z,2.50
2022-07-25T07:11:39.907Z,2.10
2022-07-25T07:14:07.165Z,2.00
2022-07-25T07:16:34.336Z,2.33
2022-07-25T07:19:01.163Z,2.50
2022-07-25T07:21:28.085Z,2.10
2022-07-25T07:23:56.121Z,2.20
2022-07-25T07:26:23.860Z,2.72
2022-07-25T07:28:51.621Z,2.38
2022-07-25T07:31:18.717Z,1.92
2022-07-25T07:33:45.928Z,2.20
2022-07-25T07:36:12.997Z,2.10
2022-07-25T07:38:39.807Z,2.40
2022-07-25T07:41:06.664Z,2.10
2022-07-25T07:43:33.607Z,1.80
2022-07-25T07:46:01.511Z,2.13
2022-07-25T07:48:30.462Z,1.80
2022-07-25T07:50:58.616Z,1.70
2022-07-25T07:53:25.643Z,2.00
2022-07-25T07:55:52.423Z,1.98
2022-07-25T07:58:19.747Z,1.80
2022-07-25T08:00:48.895Z,2.10
2022-07-25T08:03:20.961Z,1.80
2022-07-25T08:05:48.784Z,1.80
2022-07-25T08:08:16.199Z,1.60
2022-07-25T08:10:45.975Z,1.60
2022-07-25T08:13:18.057Z,2.00
2022-07-25T08:15:48.112Z,1.50
2022-07-25T08:18:17.483Z,1.50
2022-07-25T08:20:49.132Z,1.30
2022-07-25T08:23:17.178Z,1.33
2022-07-25T08:25:44.932Z,1.60
2022-07-25T08:28:12.533Z,1.45
2022-07-25T08:30:40.932Z,1.50
2022-07-25T08:33:10.252Z,1.60
2022-07-25T08:35:37.179Z,1.50
2022-07-25T08:38:05.009Z,1.30
2022-07-25T08:40:33.882Z,1.48
2022-07-25T08:43:01.263Z,1.60
2022-07-25T08:45:28.886Z,1.27
2022-07-25T08:47:56.642Z,1.30
2022-07-25T08:50:26.736Z,1.60
2022-07-25T08:53:16.126Z,1.50
2022-07-25T08:55:41.986Z,1.60
2022-07-25T08:58:11.578Z,1.60
2022-07-25T09:00:38.861Z,1.50
2022-07-25T09:03:06.588Z,1.40
2022-07-25T09:05:37.069Z,1.50
2022-07-25T09:08:13.891Z,1.33
2022-07-25T09:10:49.612Z,1.40
2022-07-25T09:13:18.086Z,1.50
2022-07-25T09:15:55.108Z,1.60
2022-07-25T09:18:27.416Z,1.48
2022-07-25T09:20:58.874Z,1.50
2022-07-25T09:23:33.548Z,1.55
2022-07-25T09:26:06.484Z,1.80
2022-07-25T09:28:40.782Z,1.30
2022-07-25T09:31:07.696Z,1.42
2022-07-25T09:33:34.625Z,1.38
2022-07-25T09:36:11.430Z,1.73
2022-07-25T09:38:38.474Z,1.70
2022-07-25T09:41:05.763Z,1.70
2022-07-25T09:43:42.930Z,1.48
2022-07-25T09:46:11.130Z,1.40
2022-07-25T09:48:40.027Z,1.27
2022-07-25T09:51:07.734Z,1.60
2022-07-25T09:53:34.816Z,1.83
2022-07-25T09:56:02.230Z,1.40
2022-07-25T09:58:29.967Z,1.40
2022-07-25T10:01:03.965Z,1.38
2022-07-25T10:03:53.171Z,1.33
2022-07-25T10:06:39.353Z,1.40
2022-07-25T10:09:13.875Z,1.40
2022-07-25T10:11:41.223Z,1.35
2022-07-25T10:14:12.696Z,1.58
2022-07-25T10:16:47.486Z,1.30
2022-07-25T10:19:15.308Z,1.65
2022-07-25T10:21:42.120Z,1.20
2022-07-25T10:24:10.834Z,1.25
2022-07-25T10:26:39.553Z,1.40
2022-07-25T10:29:11.659Z,1.30
2022-07-25T10:31:49.371Z,1.60
2022-07-25T10:34:29.334Z,1.33
2022-07-25T10:36:56.143Z,1.35
2022-07-25T10:39:23.339Z,1.55
2022-07-25T10:41:56.213Z,1.53
2022-07-25T10:44:23.314Z,1.50
2022-07-25T10:46:50.272Z,1.67
2022-07-25T10:49:31.148Z,1.30
2022-07-25T10:52:03.304Z,1.40
2022-07-25T10:54:36.343Z,1.40
2022-07-25T10:57:05.340Z,1.33
2022-07-25T10:59:39.714Z,1.30
2022-07-25T11:02:11.529Z,1.40
2022-07-25T11:04:38.413Z,1.48
2022-07-25T11:07:14.247Z,1.63
2022-07-25T11:09:43.254Z,1.60
2022-07-25T11:12:14.946Z,1.55
2022-07-25T11:14:43.011Z,1.80
2022-07-25T11:17:17.039Z,1.58
2022-07-25T11:19:52.921Z,1.60
2022-07-25T11:22:20.194Z,1.40
2022-07-25T11:24:47.798Z,1.50
2022-07-25T11:27:23.462Z,1.60
2022-07-25T11:29:50.512Z,1.40
2022-07-25T11:32:18.465Z,1.57
2022-07-25T11:34:52.986Z,1.77
2022-07-25T11:37:21.218Z,1.70
2022-07-25T11:39:48.727Z,1.20
2022-07-25T11:42:19.931Z,1.50
2022-07-25T11:44:52.235Z,1.30
2022-07-25T11:47:30.381Z,1.58
2022-07-25T11:49:59.928Z,1.50
2022-07-25T11:52:32.333Z,1.30
2022-07-25T11:55:06.164Z,1.33
2022-07-25T11:57:38.455Z,1.47
2022-07-25T12:00:10.483Z,1.50
2022-07-25T12:02:38.268Z,1.60
2022-07-25T12:05:08.033Z,1.70
2022-07-25T12:07:46.475Z,1.80
2022-07-25T12:10:19.359Z,1.53
2022-07-25T12:12:48.233Z,1.67
2022-07-25T12:15:17.474Z,1.60
2022-07-25T12:17:44.462Z,1.60
2022-07-25T12:20:15.221Z,1.85
2022-07-25T12:22:42.604Z,1.70
2022-07-25T12:25:11.264Z,1.63
2022-07-25T12:27:38.706Z,1.65
2022-07-25T12:30:07.170Z,1.30
2022-07-25T12:32:35.164Z,1.50
2022-07-25T12:35:02.616Z,1.50
2022-07-25T12:37:29.523Z,1.65
2022-07-25T12:39:56.686Z,1.60
2022-07-25T12:42:23.930Z,1.60
2022-07-25T12:44:50.888Z,1.60
2022-07-25T12:47:17.967Z,1.50
2022-07-25T12:49:44.889Z,1.50
2022-07-25T12:52:11.943Z,1.80
2022-07-25T12:54:39.271Z,1.48
2022-07-25T12:57:07.291Z,1.40
2022-07-25T12:59:34.257Z,1.50
2022-07-25T13:02:01.452Z,1.40
2022-07-25T13:04:28.523Z,1.67
2022-07-25T13:06:56.324Z,1.40
2022-07-25T13:09:23.914Z,1.80
2022-07-25T13:11:51.736Z,1.50
2022-07-25T13:14:18.967Z,1.30
2022-07-25T13:16:47.207Z,1.60
2022-07-25T13:19:15.313Z,1.75
2022-07-25T13:21:42.930Z,1.42
2022-07-25T13:24:10.632Z,1.50
2022-07-25T13:26:38.433Z,1.85
2022-07-25T13:29:06.138Z,1.48
2022-07-25T13:31:33.295Z,1.42
2022-07-25T13:34:01.635Z,1.67
2022-07-25T13:36:28.532Z,1.70
2022-07-25T13:38:55.636Z,1.60
2022-07-25T13:41:23.522Z,1.70
2022-07-25T13:43:50.463Z,1.70
2022-07-25T13:46:17.987Z,1.67
2022-07-25T13:48:45.003Z,1.70
2022-07-25T13:51:12.419Z,1.70
2022-07-25T13:53:39.363Z,1.83
2022-07-25T13:56:06.427Z,1.70
2022-07-25T13:58:33.357Z,1.77
2022-07-25T14:01:00.491Z,1.50
2022-07-25T14:03:27.411Z,1.50
2022-07-25T14:05:54.355Z,1.63
2022-07-25T14:08:21.353Z,1.70
2022-07-25T14:10:48.447Z,1.55
2022-07-25T14:13:15.298Z,1.50
2022-07-25T14:15:42.414Z,1.75
2022-07-25T14:18:09.340Z,1.80
2022-07-25T14:20:36.285Z,1.40
2022-07-25T14:23:03.285Z,1.50
2022-07-25T14:25:30.176Z,1.60
2022-07-25T14:27:57.028Z,1.30
2022-07-25T14:30:24.051Z,1.40
2022-07-25T14:32:50.962Z,1.40
2022-07-25T14:35:17.870Z,1.67
2022-07-25T14:37:44.773Z,1.50
2022-07-25T14:40:12.486Z,1.67
2022-07-25T14:42:40.778Z,1.60
2022-07-25T14:45:08.809Z,1.70
2022-07-25T14:47:35.784Z,1.45
2022-07-25T14:50:02.744Z,1.67
2022-07-25T14:52:29.685Z,1.58
2022-07-25T14:54:56.550Z,1.50
2022-07-25T14:57:23.462Z,1.80
2022-07-25T14:59:50.933Z,1.70
2022-07-25T15:02:17.840Z,1.80
2022-07-25T15:04:44.831Z,1.80
2022-07-25T15:07:12.036Z,1.80
2022-07-25T15:09:39.042Z,1.90
2022-07-25T15:12:06.198Z,1.90
2022-07-25T15:14:33.157Z,2.10
2022-07-25T15:17:00.085Z,2.08
2022-07-25T15:19:27.103Z,1.90
2022-07-25T15:21:54.195Z,1.80
2022-07-25T15:24:23.592Z,1.83
2022-07-25T15:26:54.057Z,2.00
2022-07-25T15:29:21.162Z,1.90
2022-07-25T15:31:49.442Z,1.88
2022-07-25T15:34:16.433Z,2.03
2022-07-25T15:36:43.372Z,2.03
2022-07-25T15:39:10.511Z,1.90
2022-07-25T15:41:37.588Z,1.70
2022-07-25T15:44:05.032Z,1.98
2022-07-25T15:46:31.940Z,1.90
2022-07-25T15:48:58.932Z,2.00
2022-07-25T15:51:25.977Z,2.30
2022-07-25T15:53:52.834Z,2.05
2022-07-25T15:56:19.689Z,1.67
2022-07-25T15:58:49.107Z,2.00
2022-07-25T16:01:16.033Z,2.05
2022-07-25T16:03:43.203Z,2.00
2022-07-25T16:06:10.368Z,2.00
2022-07-25T16:08:37.366Z,1.80
2022-07-25T16:11:04.711Z,2.00
2022-07-25T16:13:32.079Z,2.17
2022-07-25T16:15:59.053Z,2.00
2022-07-25T16:18:25.970Z,2.10
2022-07-25T16:20:53.219Z,2.20
2022-07-25T16:23:20.084Z,2.30
2022-07-25T16:25:47.151Z,2.35
2022-07-25T16:28:14.257Z,2.20
2022-07-25T16:30:41.109Z,2.15
2022-07-25T16:33:08.002Z,2.70
2022-07-25T16:35:34.937Z,2.40
2022-07-25T16:38:03.423Z,2.38
2022-07-25T16:40:30.988Z,2.20
2022-07-25T16:42:58.566Z,2.33
2022-07-25T16:45:26.687Z,2.10
2022-07-25T16:47:53.532Z,2.00
2022-07-25T16:50:21.171Z,2.53
2022-07-25T16:52:48.079Z,2.40
2022-07-25T16:55:14.867Z,2.10
2022-07-25T16:57:41.801Z,2.20
2022-07-25T17:00:09.821Z,2.30
2022-07-25T17:02:36.854Z,2.45
2022-07-25T17:05:04.351Z,2.20
2022-07-25T17:07:31.995Z,2.40
2022-07-25T17:09:58.862Z,2.42
2022-07-25T17:12:25.965Z,2.13
2022-07-25T17:14:52.901Z,2.28
2022-07-25T17:17:19.741Z,2.17
2022-07-25T17:19:46.698Z,2.50
2022-07-25T17:22:13.546Z,2.50
2022-07-25T17:24:41.019Z,2.70
2022-07-25T17:27:09.036Z,2.38
2022-07-25T17:29:36.845Z,2.37
2022-07-25T17:32:04.772Z,2.55
2022-07-25T17:34:31.757Z,2.42
2022-07-25T17:36:59.383Z,2.40
2022-07-25T17:39:26.195Z,2.60
2022-07-25T17:41:53.121Z,2.37
2022-07-25T17:44:20.457Z,2.17
2022-07-25T17:46:47.657Z,2.60
2022-07-25T17:49:14.966Z,2.47
2022-07-25T17:51:42.020Z,2.13
2022-07-25T17:54:09.538Z,2.87
2022-07-25T17:56:37.824Z,2.65
2022-07-25T17:59:05.199Z,2.60
2022-07-25T18:01:32.197Z,2.65
2022-07-25T18:03:59.278Z,2.60
2022-07-25T18:06:29.703Z,2.40
2022-07-25T18:08:57.463Z,2.88
2022-07-25T18:11:24.531Z,2.60
2022-07-25T18:13:51.458Z,2.67
2022-07-25T18:16:18.514Z,2.90
2022-07-25T18:18:45.699Z,2.77
2022-07-25T18:21:12.623Z,2.58
2022-07-25T18:23:39.472Z,2.80
2022-07-25T18:26:06.390Z,2.40
2022-07-25T18:28:33.656Z,2.50
2022-07-25T18:31:00.595Z,2.90
2022-07-25T18:33:27.659Z,2.40
2022-07-25T18:35:54.468Z,2.90
2022-07-25T18:38:21.348Z,2.47
2022-07-25T18:40:51.619Z,3.00
2022-07-25T18:43:24.569Z,2.60
2022-07-25T18:45:53.839Z,3.10
2022-07-25T18:48:20.772Z,2.65
2022-07-25T18:50:47.604Z,2.80
2022-07-25T18:53:14.497Z,3.30
2022-07-25T18:55:41.777Z,2.83
2022-07-25T18:58:08.886Z,2.90
2022-07-25T19:00:36.312Z,2.70
2022-07-25T19:03:03.224Z,3.05
2022-07-25T19:05:30.107Z,3.30
2022-07-25T19:07:59.845Z,2.97
2022-07-25T19:10:26.704Z,3.08
2022-07-25T19:12:53.558Z,3.20
2022-07-25T19:15:20.607Z,3.30
2022-07-25T19:17:47.465Z,3.00
2022-07-25T19:20:14.846Z,3.30
2022-07-25T19:22:41.728Z,3.45
2022-07-25T19:25:08.836Z,3.33
2022-07-25T19:27:35.921Z,3.22
2022-07-25T19:30:03.259Z,3.25
2022-07-25T19:32:30.106Z,3.40
2022-07-25T19:34:56.956Z,3.30
2022-07-25T19:37:23.913Z,2.88
2022-07-25T19:39:50.839Z,3.10
2022-07-25T19:42:17.658Z,3.30
2022-07-25T19:44:44.506Z,3.00
2022-07-25T19:47:12.000Z,3.40
2022-07-25T19:49:39.910Z,3.30
2022-07-25T19:52:10.439Z,3.65
2022-07-25T19:54:38.196Z,3.10
2022-07-25T19:57:05.431Z,3.50
2022-07-25T19:59:32.443Z,3.05
2022-07-25T20:01:59.503Z,3.47
2022-07-25T20:04:26.470Z,2.95
2022-07-25T20:06:53.304Z,3.08
2022-07-25T20:09:20.720Z,3.20
2022-07-25T20:11:47.721Z,3.00
2022-07-25T20:14:14.678Z,3.35
2022-07-25T20:16:41.674Z,3.03
2022-07-25T20:19:10.153Z,2.95
2022-07-25T20:21:38.364Z,2.90
2022-07-25T20:24:05.442Z,3.30
2022-07-25T20:26:32.292Z,3.40
2022-07-25T20:28:59.337Z,3.10
2022-07-25T20:31:26.249Z,2.88
2022-07-25T20:33:53.109Z,3.37
2022-07-25T20:36:20.538Z,3.15
2022-07-25T20:38:47.676Z,2.65
2022-07-25T20:41:15.449Z,3.00
2022-07-25T20:43:42.596Z,3.35
2022-07-25T20:46:09.670Z,3.30
2022-07-25T20:48:36.778Z,3.05
2022-07-25T20:51:04.033Z,2.70
2022-07-25T20:53:30.919Z,2.97
2022-07-25T20:55:57.764Z,2.78
2022-07-25T20:58:24.658Z,2.70
2022-07-25T21:00:51.651Z,2.83
2022-07-25T21:03:18.595Z,3.08
2022-07-25T21:05:45.650Z,2.90
2022-07-25T21:08:12.502Z,2.80
2022-07-25T21:10:39.546Z,3.17
2022-07-25T21:13:06.471Z,3.10
2022-07-25T21:15:33.480Z,3.05
2022-07-25T21:18:00.929Z,3.10
2022-07-25T21:20:27.923Z,2.70
2022-07-25T21:22:54.798Z,3.17
2022-07-25T21:25:22.039Z,3.22
2022-07-25T21:27:49.088Z,3.10
2022-07-25T21:30:16.057Z,3.13
2022-07-25T21:32:42.945Z,3.03
2022-07-25T21:35:09.942Z,3.30
2022-07-25T21:37:36.897Z,3.00
2022-07-25T21:40:04.825Z,3.38
2022-07-25T21:42:31.760Z,3.47
2022-07-25T21:44:58.559Z,3.17
2022-07-25T21:47:25.410Z,3.20
2022-07-25T21:49:52.899Z,3.20
2022-07-25T21:52:26.614Z,3.10
2022-07-25T21:55:01.865Z,3.15
2022-07-25T21:57:28.743Z,3.25
2022-07-25T21:59:55.910Z,3.20
2022-07-25T22:02:23.095Z,3.00
2022-07-25T22:04:50.252Z,3.00
2022-07-25T22:07:17.100Z,3.03
2022-07-25T22:09:44.158Z,2.95
2022-07-25T22:12:11.134Z,2.80
2022-07-25T22:14:37.949Z,2.95
2022-07-25T22:17:05.291Z,2.80
2022-07-25T22:19:32.617Z,2.65
2022-07-25T22:21:59.453Z,2.95
2022-07-25T22:24:26.440Z,3.07
2022-07-25T22:26:53.322Z,2.83
2022-07-25T22:29:20.197Z,2.60
2022-07-25T22:31:47.816Z,2.95
2022-07-25T22:34:14.787Z,2.72
2022-07-25T22:36:41.619Z,2.80
2022-07-25T22:39:08.934Z,2.63
2022-07-25T22:41:36.185Z,2.83
2022-07-25T22:44:03.125Z,2.25
2022-07-25T22:46:31.569Z,2.55
2022-07-25T22:48:59.155Z,2.50
2022-07-25T22:51:26.501Z,2.70
2022-07-25T22:53:54.032Z,2.60
2022-07-25T22:56:21.773Z,2.70
2022-07-25T22:58:49.030Z,2.33
2022-07-25T23:01:17.122Z,2.60
2022-07-25T23:03:44.166Z,2.40
2022-07-25T23:06:11.087Z,2.40
2022-07-25T23:08:37.989Z,2.60
2022-07-25T23:11:05.209Z,2.50
2022-07-25T23:13:33.243Z,2.80
2022-07-25T23:16:00.329Z,2.70
2022-07-25T23:18:28.744Z,2.35
2022-07-25T23:20:55.552Z,2.50
2022-07-25T23:23:22.451Z,2.58
2022-07-25T23:25:49.315Z,2.30
2022-07-25T23:28:16.129Z,2.60
2022-07-25T23:30:43.015Z,2.90
2022-07-25T23:33:09.907Z,2.80
2022-07-25T23:35:36.859Z,2.53
2022-07-25T23:38:04.121Z,2.60
2022-07-25T23:40:31.044Z,2.60
2022-07-25T23:42:57.869Z,2.60
2022-07-25T23:45:27.906Z,2.30
2022-07-25T23:47:56.018Z,2.85
2022-07-25T23:50:23.564Z,2.45
2022-07-25T23:52:50.545Z,2.60
2022-07-25T23:55:17.543Z,2.30
2022-07-25T23:57:44.461Z,2.70
